Main page
METAR-TAF:

METAR-TAF

Airports :

Tongatapu, Tonga

Fuaʻamotu International Airport

latitude: 21-14S, longitude: 175-09W, elevation: 38 m

Current weather observation

The report was made 33 minutes ago, at 10:00 UTC
Wind 4 kt from the East/Southeast
Temperature 24°C
Humidity 94%
Pressure 1018 hPa
Visibility 10 km or more
Scattered clouds at a height of 800 ft
Scattered clouds at a height of 1600 ft
Broken clouds at a height of 11000 ft
light drizzle

METAR: NFTF 281000Z 12004KT 9999 -DZ SCT008 SCT016 BKN110 24/23 Q1018

Time: 23:33 (10:33 UTC)

Forecast

The report was made 5 hours and 26 minutes ago, at 05:07 UTC
Forecast valid from 28 at 06 UTC to 29 at 06 UTC
Wind 8 kt from the East
Visibility 10 km or more
Scattered clouds at a height of 1600 ft
Broken clouds at a height of 10000 ft

TAF: NFTF 280507Z 2806/2906 10008KT 9999 SCT016 BKN100

Weather observations and forecasts of more than 4000 airports (METAR and TAF reports).

The available stations are represented by yellow and red dots on the map.

Hover mouse over dot to see the name of the station.

Then click to see weather observations and forecasts.

To change the map : click on the green buttons with a black cross to zoom in, on the green button with a dash to zoom out, or on the green arrows for adjacent maps.


METAR-TAF: